createdAt,value
2023-04-22T00:00:54.758Z,100.00
2023-04-22T00:03:24.711Z,100.00
2023-04-22T00:05:51.487Z,100.00
2023-04-22T00:08:18.002Z,100.00
2023-04-22T00:10:44.416Z,100.00
2023-04-22T00:13:10.823Z,100.00
2023-04-22T00:15:37.526Z,100.00
2023-04-22T00:18:04.213Z,100.00
2023-04-22T00:20:32.831Z,100.00
2023-04-22T00:22:59.259Z,100.00
2023-04-22T00:25:25.914Z,100.00
2023-04-22T00:27:52.280Z,100.00
2023-04-22T00:30:18.650Z,100.00
2023-04-22T00:32:45.055Z,100.00
2023-04-22T00:35:11.530Z,100.00
2023-04-22T00:37:37.922Z,100.00
2023-04-22T00:40:04.668Z,100.00
2023-04-22T00:42:31.349Z,100.00
2023-04-22T00:44:57.894Z,100.00
2023-04-22T00:47:26.963Z,100.00
2023-04-22T00:49:54.354Z,100.00
2023-04-22T00:52:20.752Z,100.00
2023-04-22T00:54:48.094Z,100.00
2023-04-22T00:57:14.642Z,100.00
2023-04-22T00:59:42.163Z,100.00
2023-04-22T01:02:08.797Z,100.00
2023-04-22T01:04:35.609Z,100.00
2023-04-22T01:07:02.070Z,100.00
2023-04-22T01:09:28.862Z,100.00
2023-04-22T01:11:56.175Z,100.00
2023-04-22T01:14:22.683Z,100.00
2023-04-22T01:16:50.444Z,100.00
2023-04-22T01:19:16.882Z,100.00
2023-04-22T01:21:45.000Z,100.00
2023-04-22T01:24:11.390Z,100.00
2023-04-22T01:26:38.038Z,100.00
2023-04-22T01:29:05.500Z,100.00
2023-04-22T01:31:32.028Z,100.00
2023-04-22T01:33:58.844Z,100.00
2023-04-22T01:36:25.617Z,100.00
2023-04-22T01:38:52.015Z,100.00
2023-04-22T01:41:18.684Z,100.00
2023-04-22T01:43:45.405Z,100.00
2023-04-22T01:46:11.788Z,100.00
2023-04-22T01:48:38.389Z,100.00
2023-04-22T01:51:05.357Z,100.00
2023-04-22T01:53:31.839Z,100.00
2023-04-22T01:55:58.299Z,100.00
2023-04-22T01:58:24.672Z,100.00
2023-04-22T02:00:51.068Z,100.00
2023-04-22T02:03:17.542Z,100.00
2023-04-22T02:05:44.002Z,100.00
2023-04-22T02:08:10.759Z,100.00
2023-04-22T02:10:37.252Z,100.00
2023-04-22T02:13:03.624Z,100.00
2023-04-22T02:15:30.471Z,100.00
2023-04-22T02:17:56.862Z,100.00
2023-04-22T02:20:23.304Z,100.00
2023-04-22T02:22:50.637Z,100.00
2023-04-22T02:25:17.044Z,100.00
2023-04-22T02:27:43.420Z,100.00
2023-04-22T02:30:09.997Z,100.00
2023-04-22T02:32:38.674Z,100.00
2023-04-22T02:35:05.418Z,100.00
2023-04-22T02:37:31.801Z,100.00
2023-04-22T02:39:58.168Z,100.00
2023-04-22T02:42:24.585Z,100.00
2023-04-22T02:44:50.946Z,100.00
2023-04-22T02:47:17.317Z,100.00
2023-04-22T02:49:43.681Z,100.00
2023-04-22T02:52:10.104Z,100.00
2023-04-22T02:54:36.474Z,100.00
2023-04-22T02:57:02.978Z,100.00
2023-04-22T02:59:30.790Z,100.00
2023-04-22T03:01:57.231Z,100.00
2023-04-22T03:04:25.733Z,100.00
2023-04-22T03:06:52.507Z,100.00
2023-04-22T03:09:18.916Z,100.00
2023-04-22T03:11:45.462Z,100.00
2023-04-22T03:14:11.835Z,100.00
2023-04-22T03:16:38.264Z,100.00
2023-04-22T03:19:04.722Z,100.00
2023-04-22T03:21:32.279Z,100.00
2023-04-22T03:23:59.019Z,100.00
2023-04-22T03:26:25.374Z,100.00
2023-04-22T03:28:51.757Z,100.00
2023-04-22T03:31:18.137Z,100.00
2023-04-22T03:33:44.507Z,100.00
2023-04-22T03:36:10.887Z,100.00
2023-04-22T03:38:37.255Z,100.00
2023-04-22T03:41:03.628Z,100.00
2023-04-22T03:43:30.021Z,100.00
2023-04-22T03:45:56.494Z,100.00
2023-04-22T03:48:22.908Z,100.00
2023-04-22T03:50:49.335Z,100.00
2023-04-22T03:53:15.719Z,100.00
2023-04-22T03:55:42.113Z,100.00
2023-04-22T03:58:08.488Z,100.00
2023-04-22T04:00:34.868Z,100.00
2023-04-22T04:03:01.389Z,100.00
2023-04-22T04:05:28.015Z,100.00
2023-04-22T04:07:54.579Z,100.00
2023-04-22T04:10:20.945Z,100.00
2023-04-22T04:12:47.344Z,100.00
2023-04-22T04:15:13.730Z,100.00
2023-04-22T04:17:40.182Z,100.00
2023-04-22T04:20:07.312Z,100.00
2023-04-22T04:22:34.955Z,100.00
2023-04-22T04:25:01.706Z,100.00
2023-04-22T04:27:28.065Z,100.00
2023-04-22T04:29:55.778Z,100.00
2023-04-22T04:32:22.600Z,100.00
2023-04-22T04:34:49.032Z,100.00
2023-04-22T04:37:16.723Z,100.00
2023-04-22T04:39:43.466Z,100.00
2023-04-22T04:42:09.860Z,100.00
2023-04-22T04:44:36.385Z,100.00
2023-04-22T04:47:04.052Z,100.00
2023-04-22T04:49:30.627Z,100.00
2023-04-22T04:52:01.754Z,100.00
2023-04-22T04:54:28.334Z,100.00
2023-04-22T04:56:54.747Z,100.00
2023-04-22T04:59:21.105Z,100.00
2023-04-22T05:01:47.565Z,100.00
2023-04-22T05:04:14.315Z,100.00
2023-04-22T05:06:40.875Z,100.00
2023-04-22T05:09:07.822Z,100.00
2023-04-22T05:11:34.245Z,100.00
2023-04-22T05:14:00.832Z,100.00
2023-04-22T05:16:27.283Z,100.00
2023-04-22T05:18:53.724Z,100.00
2023-04-22T05:21:20.357Z,100.00
2023-04-22T05:23:46.747Z,100.00
2023-04-22T05:26:13.103Z,100.00
2023-04-22T05:28:39.479Z,100.00
2023-04-22T05:31:06.796Z,100.00
2023-04-22T05:33:33.197Z,100.00
2023-04-22T05:35:59.584Z,100.00
2023-04-22T05:38:25.990Z,100.00
2023-04-22T05:40:52.367Z,100.00
2023-04-22T05:43:18.819Z,100.00
2023-04-22T05:45:45.232Z,100.00
2023-04-22T05:48:11.685Z,100.00
2023-04-22T05:50:38.138Z,100.00
2023-04-22T05:53:04.522Z,100.00
2023-04-22T05:55:31.029Z,100.00
2023-04-22T05:57:57.415Z,100.00
2023-04-22T06:00:23.775Z,100.00
2023-04-22T06:02:50.332Z,100.00
2023-04-22T06:05:16.893Z,100.00
2023-04-22T06:07:43.394Z,100.00
2023-04-22T06:10:10.230Z,100.00
2023-04-22T06:12:36.629Z,100.00
2023-04-22T06:15:03.968Z,100.00
2023-04-22T06:17:30.446Z,100.00
2023-04-22T06:19:56.863Z,100.00
2023-04-22T06:22:23.249Z,100.00
2023-04-22T06:24:49.610Z,100.00
2023-04-22T06:27:16.000Z,100.00
2023-04-22T06:29:43.450Z,100.00
2023-04-22T06:32:09.843Z,100.00
2023-04-22T06:34:38.508Z,100.00
2023-04-22T06:37:04.933Z,100.00
2023-04-22T06:39:31.315Z,100.00
2023-04-22T06:41:57.720Z,100.00
2023-04-22T06:44:25.392Z,100.00
2023-04-22T06:46:51.829Z,100.00
2023-04-22T06:49:18.269Z,100.00
2023-04-22T06:51:44.639Z,100.00
2023-04-22T06:54:11.025Z,100.00
2023-04-22T06:56:37.444Z,100.00
2023-04-22T06:59:03.847Z,100.00
2023-04-22T07:01:30.268Z,100.00
2023-04-22T07:03:56.816Z,100.00
2023-04-22T07:06:23.339Z,100.00
2023-04-22T07:08:49.804Z,100.00
2023-04-22T07:11:16.227Z,100.00
2023-04-22T07:13:42.605Z,100.00
2023-04-22T07:16:09.032Z,100.00
2023-04-22T07:18:36.016Z,100.00
2023-04-22T07:21:02.444Z,100.00
2023-04-22T07:23:28.846Z,100.00
2023-04-22T07:25:55.301Z,100.00
2023-04-22T07:28:21.717Z,100.00
2023-04-22T07:30:48.536Z,100.00
2023-04-22T07:33:14.908Z,100.00
2023-04-22T07:35:41.297Z,100.00
2023-04-22T07:38:09.283Z,100.00
2023-04-22T07:40:36.264Z,100.00
2023-04-22T07:43:02.684Z,100.00
2023-04-22T07:45:29.080Z,100.00
2023-04-22T07:47:55.737Z,100.00
2023-04-22T07:50:22.364Z,100.00
2023-04-22T07:52:48.749Z,100.00
2023-04-22T07:55:15.227Z,100.00
2023-04-22T07:57:41.677Z,100.00
2023-04-22T08:00:10.869Z,100.00
2023-04-22T08:02:37.416Z,100.00
2023-04-22T08:05:04.169Z,100.00
2023-04-22T08:07:33.555Z,100.00
2023-04-22T08:10:00.512Z,100.00
2023-04-22T08:12:26.927Z,100.00
2023-04-22T08:14:54.058Z,100.00
2023-04-22T08:17:21.915Z,98.05
2023-04-22T08:19:49.027Z,99.32
2023-04-22T08:22:16.095Z,91.47
2023-04-22T08:24:42.478Z,91.47
2023-04-22T08:27:08.872Z,90.68
2023-04-22T08:29:35.367Z,83.57
2023-04-22T08:32:03.024Z,80.07
2023-04-22T08:34:29.446Z,77.08
2023-04-22T08:36:55.837Z,75.22
2023-04-22T08:39:22.218Z,73.60
2023-04-22T08:41:50.465Z,70.88
2023-04-22T08:44:16.833Z,69.48
2023-04-22T08:46:47.004Z,69.35
2023-04-22T08:49:16.738Z,68.62
2023-04-22T08:51:44.341Z,66.79
2023-04-22T08:54:11.809Z,65.93
2023-04-22T08:56:42.355Z,64.41
2023-04-22T08:59:10.345Z,64.11
2023-04-22T09:01:38.387Z,62.84
2023-04-22T09:04:05.187Z,62.27
2023-04-22T09:06:32.798Z,61.76
2023-04-22T09:09:00.561Z,61.08
2023-04-22T09:11:28.298Z,60.07
2023-04-22T09:13:54.769Z,60.00
2023-04-22T09:16:21.257Z,59.67
2023-04-22T09:18:47.702Z,58.65
2023-04-22T09:21:14.150Z,59.10
2023-04-22T09:24:02.392Z,59.46
2023-04-22T09:26:28.786Z,58.67
2023-04-22T09:28:58.281Z,59.17
2023-04-22T09:31:25.539Z,57.60
2023-04-22T09:33:53.417Z,58.28
2023-04-22T09:36:28.253Z,58.52
2023-04-22T09:38:59.413Z,58.00
2023-04-22T09:41:29.273Z,57.71
2023-04-22T09:44:00.672Z,57.41
2023-04-22T09:46:28.717Z,57.57
2023-04-22T09:48:56.151Z,58.11
2023-04-22T09:51:22.841Z,57.99
2023-04-22T09:53:59.557Z,57.59
2023-04-22T09:56:49.280Z,55.97
2023-04-22T09:59:22.817Z,55.38
2023-04-22T10:01:50.613Z,55.28
2023-04-22T10:04:17.972Z,55.73
2023-04-22T10:06:44.386Z,55.08
2023-04-22T10:09:12.196Z,55.61
2023-04-22T10:11:40.524Z,55.14
2023-04-22T10:14:10.115Z,54.61
2023-04-22T10:16:38.573Z,54.71
2023-04-22T10:19:06.579Z,55.38
2023-04-22T10:21:33.524Z,55.43
2023-04-22T10:24:00.833Z,52.65
2023-04-22T10:26:43.663Z,53.11
2023-04-22T10:29:16.684Z,52.45
2023-04-22T10:31:44.909Z,53.04
2023-04-22T10:34:12.959Z,51.92
2023-04-22T10:37:01.947Z,51.33
2023-04-22T10:39:29.137Z,52.61
2023-04-22T10:42:11.073Z,51.73
2023-04-22T10:44:54.234Z,51.92
2023-04-22T10:47:29.114Z,51.12
2023-04-22T10:50:13.788Z,50.90
2023-04-22T10:52:41.583Z,51.38
2023-04-22T10:55:09.576Z,49.37
2023-04-22T10:57:41.653Z,49.72
2023-04-22T11:00:35.380Z,50.34
2023-04-22T11:03:05.226Z,48.88
2023-04-22T11:05:32.559Z,47.61
2023-04-22T11:08:04.165Z,47.30
2023-04-22T11:10:32.637Z,47.99
2023-04-22T11:13:01.306Z,47.03
2023-04-22T11:15:29.613Z,46.93
2023-04-22T11:17:56.363Z,46.81
2023-04-22T11:20:24.140Z,45.61
2023-04-22T11:22:55.430Z,45.51
2023-04-22T11:25:23.353Z,45.14
2023-04-22T11:27:49.811Z,45.21
2023-04-22T11:30:21.075Z,46.00
2023-04-22T11:32:52.293Z,47.19
2023-04-22T11:35:24.018Z,47.50
2023-04-22T11:38:01.210Z,47.66
2023-04-22T11:40:38.854Z,48.02
2023-04-22T11:43:08.279Z,48.70
2023-04-22T11:45:36.326Z,49.49
2023-04-22T11:48:05.155Z,49.08
2023-04-22T11:50:34.304Z,48.77
2023-04-22T11:53:12.521Z,48.46
2023-04-22T11:55:39.869Z,48.45
2023-04-22T11:58:09.628Z,47.98
2023-04-22T12:03:16.950Z,48.98
2023-04-22T12:05:45.114Z,49.59
2023-04-22T12:08:13.126Z,51.13
2023-04-22T12:10:46.618Z,51.76
2023-04-22T12:13:30.936Z,51.59
2023-04-22T12:15:59.259Z,50.68
2023-04-22T12:18:36.210Z,51.58
2023-04-22T12:21:13.180Z,52.47
2023-04-22T12:23:52.113Z,52.60
2023-04-22T12:26:20.791Z,52.61
2023-04-22T12:28:48.359Z,51.97
2023-04-22T12:31:15.408Z,52.46
2023-04-22T12:33:42.497Z,52.23
2023-04-22T12:36:09.409Z,51.42
2023-04-22T12:38:36.511Z,50.88
2023-04-22T12:41:04.246Z,50.44
2023-04-22T12:43:32.197Z,50.85
2023-04-22T12:45:58.996Z,50.70
2023-04-22T12:48:25.441Z,51.79
2023-04-22T12:50:51.819Z,50.88
2023-04-22T12:53:18.238Z,50.61
2023-04-22T12:55:46.100Z,51.04
2023-04-22T12:58:12.706Z,50.77
2023-04-22T13:00:39.075Z,51.97
2023-04-22T13:03:05.699Z,51.98
2023-04-22T13:05:32.404Z,53.20
2023-04-22T13:08:06.386Z,53.60
2023-04-22T13:10:33.605Z,53.07
2023-04-22T13:13:13.542Z,53.05
2023-04-22T13:15:43.133Z,54.16
2023-04-22T13:18:09.530Z,53.69
2023-04-22T13:20:36.052Z,53.07
2023-04-22T13:23:02.539Z,53.89
2023-04-22T13:25:28.939Z,53.10
2023-04-22T13:27:55.319Z,52.49
2023-04-22T13:30:21.692Z,52.47
2023-04-22T13:32:48.126Z,51.68
2023-04-22T13:35:14.592Z,51.85
2023-04-22T13:37:40.996Z,51.90
2023-04-22T13:40:08.248Z,49.48
2023-04-22T13:42:34.725Z,46.52
2023-04-22T13:45:01.149Z,44.13
2023-04-22T13:47:27.577Z,42.83
2023-04-22T13:49:53.982Z,41.21
2023-04-22T13:52:20.661Z,43.48
2023-04-22T13:54:47.076Z,44.21
2023-04-22T13:57:13.494Z,45.36
2023-04-22T13:59:41.693Z,45.79
2023-04-22T14:02:08.374Z,45.18
2023-04-22T14:04:34.850Z,46.60
2023-04-22T14:07:01.846Z,47.02
2023-04-22T14:09:28.224Z,48.40
2023-04-22T14:11:54.894Z,48.72
2023-04-22T14:14:21.283Z,50.89
2023-04-22T14:16:48.487Z,51.31
2023-04-22T14:19:14.960Z,51.94
2023-04-22T14:21:41.753Z,52.15
2023-04-22T14:24:08.140Z,52.35
2023-04-22T14:26:34.612Z,52.44
2023-04-22T14:29:01.049Z,53.42
2023-04-22T14:31:27.555Z,53.25
2023-04-22T14:33:54.084Z,52.91
2023-04-22T14:36:20.477Z,53.41
2023-04-22T14:38:46.982Z,53.41
2023-04-22T14:41:13.463Z,54.48
2023-04-22T14:43:39.916Z,54.49
2023-04-22T14:46:06.412Z,55.05
2023-04-22T14:48:35.264Z,56.54
2023-04-22T14:51:01.913Z,57.25
2023-04-22T14:53:28.403Z,57.71
2023-04-22T14:55:55.749Z,58.63
2023-04-22T14:58:22.768Z,59.71
2023-04-22T15:00:49.963Z,61.67
2023-04-22T15:03:16.531Z,66.95
2023-04-22T15:05:43.365Z,73.31
2023-04-22T15:08:09.783Z,85.07
2023-04-22T15:10:36.370Z,98.61
2023-04-22T15:13:02.789Z,100.00
2023-04-22T15:15:29.199Z,100.00
2023-04-22T15:17:55.643Z,100.00
2023-04-22T15:20:22.049Z,100.00
2023-04-22T15:22:48.819Z,100.00
2023-04-22T15:25:17.437Z,100.00
2023-04-22T15:27:44.528Z,100.00
2023-04-22T15:30:11.171Z,100.00
2023-04-22T15:32:39.039Z,100.00
2023-04-22T15:35:07.309Z,100.00
2023-04-22T15:37:33.748Z,100.00
2023-04-22T15:40:00.265Z,100.00
2023-04-22T15:42:26.686Z,100.00
2023-04-22T15:44:53.065Z,100.00
2023-04-22T15:47:19.568Z,100.00
2023-04-22T15:49:46.015Z,100.00
2023-04-22T15:52:12.461Z,100.00
2023-04-22T15:54:38.868Z,100.00
2023-04-22T15:57:05.284Z,100.00
2023-04-22T15:59:31.678Z,100.00
2023-04-22T16:01:58.135Z,100.00
2023-04-22T16:04:24.989Z,100.00
2023-04-22T16:06:51.673Z,100.00
2023-04-22T16:09:18.177Z,100.00
2023-04-22T16:11:44.568Z,100.00
2023-04-22T16:14:12.194Z,100.00
2023-04-22T16:16:39.883Z,100.00
2023-04-22T16:19:06.493Z,100.00
2023-04-22T16:21:32.852Z,100.00
2023-04-22T16:23:59.249Z,100.00
2023-04-22T16:26:25.688Z,100.00
2023-04-22T16:28:52.111Z,100.00
2023-04-22T16:31:22.676Z,100.00
2023-04-22T16:33:50.298Z,100.00
2023-04-22T16:36:16.720Z,100.00
2023-04-22T16:38:43.273Z,100.00
2023-04-22T16:41:11.392Z,100.00
2023-04-22T16:43:40.725Z,100.00
2023-04-22T16:46:07.631Z,100.00
2023-04-22T16:48:34.186Z,100.00
2023-04-22T16:51:00.618Z,100.00
2023-04-22T16:53:27.075Z,100.00
2023-04-22T16:55:53.441Z,100.00
2023-04-22T16:58:19.785Z,100.00
2023-04-22T17:00:47.754Z,100.00
2023-04-22T17:03:14.428Z,100.00
2023-04-22T17:05:40.975Z,100.00
2023-04-22T17:08:07.710Z,100.00
2023-04-22T17:10:34.734Z,100.00
2023-04-22T17:13:01.285Z,100.00
2023-04-22T17:15:27.681Z,100.00
2023-04-22T17:17:54.091Z,100.00
2023-04-22T17:20:20.547Z,100.00
2023-04-22T17:22:46.991Z,100.00
2023-04-22T17:25:13.364Z,100.00
2023-04-22T17:27:39.753Z,100.00
2023-04-22T17:30:06.776Z,100.00
2023-04-22T17:32:33.199Z,100.00
2023-04-22T17:34:59.679Z,100.00
2023-04-22T17:37:26.065Z,100.00
2023-04-22T17:39:52.679Z,100.00
2023-04-22T17:42:19.195Z,100.00
2023-04-22T17:44:45.698Z,100.00
2023-04-22T17:47:12.136Z,100.00
2023-04-22T17:49:38.937Z,100.00
2023-04-22T17:52:05.608Z,100.00
2023-04-22T17:54:32.022Z,100.00
2023-04-22T17:56:58.377Z,100.00
2023-04-22T17:59:24.772Z,100.00
2023-04-22T18:01:51.448Z,100.00
2023-04-22T18:04:18.056Z,100.00
2023-04-22T18:06:44.596Z,100.00
2023-04-22T18:09:11.404Z,100.00
2023-04-22T18:11:37.795Z,100.00
2023-04-22T18:14:04.205Z,100.00
2023-04-22T18:16:30.657Z,100.00
2023-04-22T18:18:58.946Z,100.00
2023-04-22T18:21:25.532Z,100.00
2023-04-22T18:23:53.060Z,100.00
2023-04-22T18:26:19.452Z,100.00
2023-04-22T18:28:45.870Z,100.00
2023-04-22T18:31:12.308Z,100.00
2023-04-22T18:33:38.687Z,100.00
2023-04-22T18:36:05.435Z,100.00
2023-04-22T18:38:31.887Z,100.00
2023-04-22T18:40:58.606Z,100.00
2023-04-22T18:43:24.992Z,100.00
2023-04-22T18:45:51.440Z,100.00
2023-04-22T18:48:19.122Z,100.00
2023-04-22T18:50:45.680Z,100.00
2023-04-22T18:53:12.161Z,100.00
2023-04-22T18:55:38.706Z,100.00
2023-04-22T18:58:05.172Z,100.00
2023-04-22T19:00:31.644Z,100.00
2023-04-22T19:02:58.158Z,100.00
2023-04-22T19:05:24.874Z,100.00
2023-04-22T19:07:51.852Z,100.00
2023-04-22T19:10:18.258Z,100.00
2023-04-22T19:12:44.622Z,100.00
2023-04-22T19:15:11.279Z,100.00
2023-04-22T19:17:38.547Z,100.00
2023-04-22T19:20:06.153Z,100.00
2023-04-22T19:22:32.559Z,100.00
2023-04-22T19:24:58.979Z,100.00
2023-04-22T19:27:25.678Z,100.00
2023-04-22T19:29:53.304Z,100.00
2023-04-22T19:32:20.991Z,100.00
2023-04-22T19:34:47.692Z,100.00
2023-04-22T19:37:14.166Z,100.00
2023-04-22T19:39:40.697Z,100.00
2023-04-22T19:42:07.231Z,100.00
2023-04-22T19:44:33.613Z,100.00
2023-04-22T19:47:00.833Z,100.00
2023-04-22T19:49:27.523Z,100.00
2023-04-22T19:51:54.595Z,100.00
2023-04-22T19:54:21.805Z,100.00
2023-04-22T19:56:48.977Z,100.00
2023-04-22T19:59:15.987Z,100.00
2023-04-22T20:01:42.575Z,100.00
2023-04-22T20:04:09.280Z,100.00
2023-04-22T20:06:35.929Z,100.00
2023-04-22T20:09:05.138Z,100.00
2023-04-22T20:11:32.336Z,100.00
2023-04-22T20:13:59.180Z,100.00
2023-04-22T20:16:26.868Z,100.00
2023-04-22T20:18:53.596Z,100.00
2023-04-22T20:21:20.061Z,100.00
2023-04-22T20:23:47.832Z,100.00
2023-04-22T20:26:18.584Z,100.00
2023-04-22T20:28:47.669Z,100.00
2023-04-22T20:31:16.497Z,100.00
2023-04-22T20:33:42.924Z,100.00
2023-04-22T20:36:09.814Z,100.00
2023-04-22T20:38:39.686Z,100.00
2023-04-22T20:41:06.999Z,100.00
2023-04-22T20:43:33.515Z,100.00
2023-04-22T20:45:59.994Z,100.00
2023-04-22T20:48:26.565Z,100.00
2023-04-22T20:50:52.925Z,100.00
2023-04-22T20:53:19.422Z,100.00
2023-04-22T20:55:45.992Z,100.00
2023-04-22T20:58:12.604Z,100.00
2023-04-22T21:00:38.942Z,100.00
2023-04-22T21:03:08.554Z,100.00
2023-04-22T21:05:42.250Z,100.00
2023-04-22T21:08:23.071Z,100.00
2023-04-22T21:10:51.047Z,100.00
2023-04-22T21:13:18.017Z,100.00
2023-04-22T21:15:55.667Z,100.00
2023-04-22T21:18:24.441Z,100.00
2023-04-22T21:20:51.696Z,100.00
2023-04-22T21:23:19.993Z,100.00
2023-04-22T21:25:48.476Z,100.00
2023-04-22T21:28:15.857Z,100.00
2023-04-22T21:30:42.473Z,100.00
2023-04-22T21:33:08.841Z,100.00
2023-04-22T21:35:35.546Z,100.00
2023-04-22T21:38:02.753Z,100.00
2023-04-22T21:40:29.146Z,100.00
2023-04-22T21:42:55.629Z,100.00
2023-04-22T21:45:21.997Z,100.00
2023-04-22T21:47:48.404Z,100.00
2023-04-22T21:50:14.824Z,100.00
2023-04-22T21:52:41.211Z,100.00
2023-04-22T21:55:07.942Z,100.00
2023-04-22T21:57:34.364Z,100.00
2023-04-22T22:00:01.074Z,100.00
2023-04-22T22:02:27.598Z,100.00
2023-04-22T22:04:54.157Z,100.00
2023-04-22T22:07:21.972Z,100.00
2023-04-22T22:09:48.343Z,100.00
2023-04-22T22:12:15.495Z,100.00
2023-04-22T22:14:43.381Z,100.00
2023-04-22T22:17:09.829Z,100.00
2023-04-22T22:19:36.329Z,100.00
2023-04-22T22:22:02.736Z,100.00
2023-04-22T22:24:29.121Z,100.00
2023-04-22T22:26:57.181Z,100.00
2023-04-22T22:29:23.549Z,100.00
2023-04-22T22:31:49.969Z,100.00
2023-04-22T22:34:16.350Z,100.00
2023-04-22T22:36:42.725Z,100.00
2023-04-22T22:39:11.783Z,100.00
2023-04-22T22:41:38.190Z,100.00
2023-04-22T22:44:04.584Z,100.00
2023-04-22T22:46:31.004Z,100.00
2023-04-22T22:48:59.095Z,100.00
2023-04-22T22:51:25.503Z,100.00
2023-04-22T22:53:51.961Z,100.00
2023-04-22T22:56:20.740Z,100.00
2023-04-22T22:58:48.148Z,100.00
2023-04-22T23:01:14.772Z,100.00
2023-04-22T23:03:41.415Z,100.00
2023-04-22T23:06:07.920Z,100.00
2023-04-22T23:08:34.290Z,100.00
2023-04-22T23:11:01.921Z,100.00
2023-04-22T23:13:28.299Z,100.00
2023-04-22T23:15:54.722Z,100.00
2023-04-22T23:18:21.240Z,100.00
2023-04-22T23:20:47.950Z,100.00
2023-04-22T23:23:18.313Z,100.00
2023-04-22T23:25:46.425Z,100.00
2023-04-22T23:28:13.169Z,100.00
2023-04-22T23:30:40.106Z,100.00
2023-04-22T23:33:07.597Z,100.00
2023-04-22T23:35:36.277Z,100.00
2023-04-22T23:38:03.988Z,100.00
2023-04-22T23:40:30.354Z,100.00
2023-04-22T23:42:56.713Z,100.00
2023-04-22T23:45:23.168Z,100.00
2023-04-22T23:47:49.810Z,100.00
2023-04-22T23:50:18.892Z,100.00
2023-04-22T23:52:45.324Z,100.00
2023-04-22T23:55:13.806Z,100.00
2023-04-22T23:57:40.452Z,100.00
